Terminal Aerodrome Forecast
Issued by NWS Austin/San Antonio, TX

Home | Current Version | Previous Version | Text Only | Print | Product List | Glossary On
Versions: 1 2 3 4 5 6 7 8 9 10 11 12 13 14 15
000
FTUS44 KEWX 282300
TAFAUS
TAF
KAUS 282320Z 2900/3006 14015G20KT P6SM VCSH FEW070
     FM290200 16009KT P6SM SKC
     FM290900 14003KT P6SM BKN020
     FM291700 16007KT P6SM BKN035
     FM291900 15012KT P6SM BKN050=

USA.gov is the U.S. government's official web portal to all federal, state and local government web resources and services.